Time;durP1;ratioP1;P1;durP2;ratioP2;P2;SDS_P1;SDS_P2;PMS_P1;PMS_P2;Temp;Humidity;BMP_temperature;BMP_pressure;BME280_temperature;BME280_humidity;BME280_pressure;Samples;Min_cycle;Max_cycle;Signal;HPM_P1;HPM_P2
2021/03/08 00:01:46;;;;;;;3.00;2.08;;;17.60;61.80;;;;;;5008964;28;20030;-35
2021/03/08 00:04:12;;;;;;;2.20;2.10;;;17.60;61.80;;;;;;5009383;28;20469;-33
2021/03/08 00:06:37;;;;;;;2.08;1.90;;;17.50;61.90;;;;;;5008681;28;20088;-35
2021/03/08 00:09:03;;;;;;;2.10;2.00;;;17.60;61.60;;;;;;5010721;28;20488;-37
2021/03/08 00:11:29;;;;;;;2.33;2.20;;;17.60;61.90;;;;;;5013284;28;20065;-34
2021/03/08 00:13:54;;;;;;;2.38;2.28;;;17.60;62.00;;;;;;5008915;28;20022;-37
2021/03/08 00:16:20;;;;;;;2.35;2.13;;;17.60;62.20;;;;;;5009751;28;20200;-35
2021/03/08 00:18:46;;;;;;;2.90;2.70;;;17.50;62.10;;;;;;5008758;28;20041;-36
2021/03/08 00:21:11;;;;;;;2.13;2.03;;;17.50;62.10;;;;;;4992096;28;20026;-36
2021/03/08 00:23:37;;;;;;;2.08;1.98;;;17.50;62.30;;;;;;5011779;28;20101;-33
2021/03/08 00:26:02;;;;;;;2.50;2.30;;;17.50;62.50;;;;;;5009650;28;20439;-37
2021/03/08 00:28:28;;;;;;;2.22;2.10;;;17.50;62.70;;;;;;5010174;28;20068;-35
2021/03/08 00:30:53;;;;;;;2.38;2.28;;;17.40;62.30;;;;;;5008809;28;20062;-32
2021/03/08 00:33:19;;;;;;;2.00;1.90;;;17.40;62.60;;;;;;5010262;28;20033;-38
2021/03/08 00:35:45;;;;;;;2.28;2.17;;;17.40;62.50;;;;;;5010432;28;20271;-38
2021/03/08 00:38:10;;;;;;;2.47;2.38;;;17.50;62.30;;;;;;5012553;28;20026;-37
2021/03/08 00:40:36;;;;;;;2.40;2.22;;;17.40;62.60;;;;;;5008117;28;20030;-38
2021/03/08 00:43:01;;;;;;;2.55;2.35;;;17.40;62.40;;;;;;4993177;28;20439;-36
2021/03/08 00:45:27;;;;;;;2.08;1.98;;;17.40;62.50;;;;;;5008556;28;20076;-36
2021/03/08 00:47:52;;;;;;;1.90;1.80;;;17.40;62.40;;;;;;5009397;28;20049;-42
2021/03/08 00:50:20;;;;;;;2.15;2.05;;;17.40;62.40;;;;;;5010882;28;20033;-38
2021/03/08 00:52:46;;;;;;;2.03;1.90;;;17.30;62.50;;;;;;5007898;28;20041;-31
2021/03/08 00:55:12;;;;;;;2.22;2.13;;;17.40;62.40;;;;;;5009568;28;20033;-36
2021/03/08 00:57:38;;;;;;;2.30;2.10;;;17.30;62.40;;;;;;5004737;28;20467;-31
2021/03/08 01:00:07;;;;;;;2.08;1.92;;;17.40;62.30;;;;;;5009717;28;20511;-37
2021/03/08 01:02:33;;;;;;;1.98;1.88;;;17.40;62.60;;;;;;5011692;28;20132;-33
2021/03/08 01:04:58;;;;;;;1.90;1.80;;;17.30;62.50;;;;;;5011106;28;20046;-35
2021/03/08 01:07:24;;;;;;;2.03;1.92;;;17.30;62.50;;;;;;5007301;28;20025;-37
2021/03/08 01:09:49;;;;;;;1.90;1.80;;;17.30;62.40;;;;;;5009610;28;20101;-35
2021/03/08 01:12:15;;;;;;;1.83;1.73;;;17.30;62.50;;;;;;5008497;28;20034;-33
2021/03/08 01:14:41;;;;;;;1.80;1.70;;;17.30;62.60;;;;;;5010370;28;20018;-38
2021/03/08 01:17:06;;;;;;;1.67;1.58;;;17.40;62.10;;;;;;5009449;28;20100;-36
2021/03/08 01:19:33;;;;;;;2.10;2.00;;;17.40;62.50;;;;;;5008136;28;20032;-36
2021/03/08 01:21:59;;;;;;;1.98;1.88;;;17.40;62.20;;;;;;5007720;28;20408;-32
2021/03/08 01:24:25;;;;;;;1.83;1.73;;;17.50;62.60;;;;;;5009135;28;20022;-37
2021/03/08 01:26:50;;;;;;;1.58;1.45;;;17.50;62.10;;;;;;5010582;28;20862;-34
2021/03/08 01:29:16;;;;;;;1.80;1.70;;;17.50;61.90;;;;;;5014439;28;20058;-39
2021/03/08 01:31:41;;;;;;;1.92;1.83;;;17.50;61.80;;;;;;5014057;28;20026;-32
2021/03/08 01:34:07;;;;;;;2.00;1.90;;;17.50;61.80;;;;;;5013000;28;20029;-37
2021/03/08 01:36:33;;;;;;;1.73;1.63;;;17.40;61.90;;;;;;5012753;28;20034;-35
2021/03/08 01:38:58;;;;;;;1.83;1.60;;;17.50;61.70;;;;;;5013489;28;20058;-34
2021/03/08 01:41:24;;;;;;;1.70;1.60;;;17.50;61.60;;;;;;5015299;28;20389;-40
2021/03/08 01:43:49;;;;;;;1.50;1.40;;;17.50;61.70;;;;;;5011499;28;20084;-33
2021/03/08 01:46:15;;;;;;;1.40;1.30;;;17.50;61.70;;;;;;5017231;28;20049;-32
2021/03/08 01:48:40;;;;;;;1.83;1.73;;;17.60;61.50;;;;;;5015576;28;20036;-37
2021/03/08 01:51:06;;;;;;;2.53;1.50;;;17.50;61.20;;;;;;5011848;28;20030;-36
2021/03/08 01:53:32;;;;;;;1.63;1.52;;;17.50;61.30;;;;;;5014354;28;20088;-38
2021/03/08 01:55:57;;;;;;;1.75;1.65;;;17.50;61.50;;;;;;5011171;28;20037;-37
2021/03/08 01:58:23;;;;;;;1.42;1.40;;;17.50;61.40;;;;;;4996320;28;20028;-35
2021/03/08 02:00:49;;;;;;;1.40;1.40;;;17.40;61.60;;;;;;5011263;28;20164;-36
2021/03/08 02:03:15;;;;;;;1.58;1.48;;;17.40;61.60;;;;;;5012635;28;20108;-36
2021/03/08 02:05:43;;;;;;;1.27;1.27;;;17.50;61.30;;;;;;5013501;28;20109;-35
2021/03/08 02:08:10;;;;;;;1.15;1.15;;;17.50;61.10;;;;;;5012759;28;20488;-35
2021/03/08 02:10:36;;;;;;;1.75;1.65;;;17.60;61.20;;;;;;5012581;28;20032;-33
2021/03/08 02:13:21;;;;;;;1.60;1.50;;;17.50;61.30;;;;;;5011073;28;20125;-36
2021/03/08 02:16:01;;;;;;;1.60;1.50;;;17.50;61.50;;;;;;5011257;28;20037;-34
2021/03/08 02:18:45;;;;;;;1.80;1.70;;;17.50;61.50;;;;;;4995531;28;20557;-35
2021/03/08 02:21:39;;;;;;;1.65;1.60;;;17.40;61.50;;;;;;5010725;28;20053;-37
2021/03/08 02:24:20;;;;;;;1.98;1.73;;;17.40;61.90;;;;;;5007895;28;20520;-34
2021/03/08 02:26:59;;;;;;;1.55;1.45;;;17.30;61.90;;;;;;5012339;28;20038;-31
2021/03/08 02:29:57;;;;;;;1.50;1.40;;;17.30;62.10;;;;;;5013931;28;20081;-38
2021/03/08 02:32:29;;;;;;;1.50;1.38;;;17.30;61.70;;;;;;4917367;29;20040;-33
2021/03/08 02:34:56;;;;;;;1.45;1.45;;;17.30;61.60;;;;;;4909448;29;20040;-39
2021/03/08 02:37:23;;;;;;;1.42;1.42;;;17.30;61.70;;;;;;4930826;29;20040;-35
2021/03/08 02:39:52;;;;;;;1.70;1.60;;;17.30;61.60;;;;;;4917395;29;20063;-34
2021/03/08 02:42:24;;;;;;;1.60;1.50;;;17.30;61.60;;;;;;4931592;29;20040;-38
2021/03/08 02:44:50;;;;;;;1.50;1.40;;;17.30;61.70;;;;;;4916092;29;20028;-36
2021/03/08 02:47:17;;;;;;;1.42;1.42;;;17.30;61.70;;;;;;4899308;29;20119;-36
2021/03/08 02:49:43;;;;;;;1.55;1.45;;;17.30;62.50;;;;;;4931009;29;20053;-34
2021/03/08 02:52:10;;;;;;;1.60;1.50;;;17.30;61.50;;;;;;4902654;29;20132;-35
2021/03/08 02:54:40;;;;;;;1.45;1.35;;;17.30;61.30;;;;;;4931798;29;20071;-35
2021/03/08 02:57:08;;;;;;;1.90;1.80;;;17.30;61.30;;;;;;4928376;29;20063;-32
2021/03/08 02:59:40;;;;;;;1.50;1.40;;;17.30;61.50;;;;;;4915714;29;20391;-32
2021/03/08 03:02:06;;;;;;;1.27;1.17;;;17.30;61.50;;;;;;4912734;29;20474;-33
2021/03/08 03:04:32;;;;;;;1.63;1.52;;;17.30;61.50;;;;;;4912148;29;20063;-36
2021/03/08 03:06:58;;;;;;;1.48;1.38;;;17.30;61.60;;;;;;4912000;29;20043;-33
2021/03/08 03:09:24;;;;;;;1.60;1.50;;;17.30;61.20;;;;;;4927480;28;20041;-40
2021/03/08 03:11:52;;;;;;;1.30;1.30;;;17.30;61.30;;;;;;4993963;28;20144;-38
2021/03/08 03:14:18;;;;;;;1.42;1.20;;;17.30;61.60;;;;;;5014496;28;20026;-35
2021/03/08 03:16:43;;;;;;;1.48;1.40;;;17.30;61.70;;;;;;4978539;28;20077;-35
2021/03/08 03:19:09;;;;;;;1.63;1.52;;;17.30;61.70;;;;;;4993491;28;20022;-43
2021/03/08 03:21:35;;;;;;;1.90;1.80;;;17.30;61.60;;;;;;5026944;28;20034;-38
2021/03/08 03:24:01;;;;;;;2.17;1.33;;;17.20;61.60;;;;;;5009686;28;20029;-38
2021/03/08 03:26:28;;;;;;;1.60;1.50;;;17.20;61.70;;;;;;4995172;28;20054;-37
2021/03/08 03:28:53;;;;;;;1.58;1.48;;;17.20;61.80;;;;;;4994688;28;20042;-35
2021/03/08 03:31:19;;;;;;;2.53;1.55;;;17.20;61.70;;;;;;4995126;28;20030;-40
2021/03/08 03:33:45;;;;;;;1.65;1.55;;;17.10;61.70;;;;;;4978432;28;20037;-36
2021/03/08 03:36:11;;;;;;;1.40;1.40;;;17.10;62.00;;;;;;5010825;28;20041;-32
2021/03/08 03:38:37;;;;;;;1.52;1.42;;;17.20;61.80;;;;;;4995232;28;20021;-40
2021/03/08 03:41:03;;;;;;;1.83;1.50;;;17.10;62.00;;;;;;4994135;28;20022;-42
2021/03/08 03:43:30;;;;;;;1.60;1.50;;;17.10;62.00;;;;;;5011018;28;20033;-40
2021/03/08 03:45:56;;;;;;;1.45;1.38;;;17.10;61.80;;;;;;4993546;28;20459;-32
2021/03/08 03:48:21;;;;;;;1.98;1.88;;;17.10;61.80;;;;;;4994905;28;20097;-35
2021/03/08 03:50:47;;;;;;;1.60;1.50;;;17.20;61.70;;;;;;5012119;28;20030;-43
2021/03/08 03:53:12;;;;;;;1.40;1.38;;;17.20;61.50;;;;;;5012013;28;20026;-34
2021/03/08 03:55:38;;;;;;;1.35;1.35;;;17.20;61.70;;;;;;5009341;28;20095;-37
2021/03/08 03:58:29;;;;;;;1.60;1.60;;;17.10;61.70;;;;;;5008056;28;20033;-36
2021/03/08 04:01:04;;;;;;;1.70;1.60;;;17.10;61.60;;;;;;5008917;28;20267;-34
2021/03/08 04:03:31;;;;;;;1.77;1.67;;;17.20;61.50;;;;;;4994772;28;20034;-39
2021/03/08 04:05:57;;;;;;;1.60;1.50;;;17.20;61.50;;;;;;4992490;28;20153;-35
2021/03/08 04:08:24;;;;;;;1.30;1.30;;;17.20;62.30;;;;;;5012445;28;20408;-39
2021/03/08 04:10:51;;;;;;;1.40;1.40;;;17.20;61.30;;;;;;5008286;28;20717;-35
2021/03/08 04:13:17;;;;;;;1.38;1.38;;;17.20;61.20;;;;;;4993903;28;20168;-36
2021/03/08 04:15:43;;;;;;;1.70;1.60;;;17.20;61.20;;;;;;5008579;28;20081;-37
2021/03/08 04:18:10;;;;;;;1.70;1.60;;;17.10;61.10;;;;;;5009260;28;20025;-37
2021/03/08 04:20:36;;;;;;;1.67;1.58;;;17.10;61.30;;;;;;5011905;28;20033;-34
2021/03/08 04:23:04;;;;;;;1.63;1.52;;;17.10;61.50;;;;;;4977775;28;20133;-35
2021/03/08 04:25:30;;;;;;;2.17;1.50;;;17.10;61.20;;;;;;4977613;28;20053;-40
2021/03/08 04:27:57;;;;;;;1.33;1.33;;;17.10;61.10;;;;;;4993973;28;20030;-36
2021/03/08 04:30:23;;;;;;;1.65;1.33;;;17.10;61.10;;;;;;4977638;28;20042;-39
2021/03/08 04:32:50;;;;;;;1.20;1.20;;;17.20;61.10;;;;;;4975921;28;20380;-36
2021/03/08 04:35:16;;;;;;;1.55;1.45;;;17.20;60.90;;;;;;5005693;28;20046;-37
2021/03/08 04:37:42;;;;;;;1.83;1.73;;;17.20;60.90;;;;;;4973567;28;20026;-39
2021/03/08 04:40:08;;;;;;;1.63;1.52;;;17.10;61.00;;;;;;4993111;28;20030;-34
2021/03/08 04:42:34;;;;;;;1.38;1.38;;;17.20;60.90;;;;;;4992833;28;20029;-38
2021/03/08 04:45:00;;;;;;;1.77;1.67;;;17.20;60.90;;;;;;4959641;28;20026;-42
2021/03/08 04:47:25;;;;;;;1.50;1.50;;;17.10;60.80;;;;;;4994832;28;20400;-38
2021/03/08 04:49:51;;;;;;;1.00;1.00;;;17.20;60.80;;;;;;5008850;28;20030;-32
2021/03/08 04:52:18;;;;;;;1.50;1.40;;;17.10;60.70;;;;;;4992978;28;20156;-37
2021/03/08 04:54:44;;;;;;;1.42;1.40;;;17.10;60.80;;;;;;4993064;28;20037;-32
2021/03/08 04:57:12;;;;;;;1.40;1.40;;;17.10;60.90;;;;;;4992656;28;20399;-32
2021/03/08 04:59:37;;;;;;;1.38;1.35;;;17.10;60.80;;;;;;5010953;28;20026;-34
2021/03/08 05:02:03;;;;;;;1.60;1.45;;;17.10;60.80;;;;;;5008762;28;20025;-33
2021/03/08 05:04:28;;;;;;;1.25;1.25;;;17.10;60.80;;;;;;4976637;28;20492;-39
2021/03/08 05:06:54;;;;;;;1.63;1.63;;;17.10;60.90;;;;;;4974934;28;20056;-33
2021/03/08 05:09:20;;;;;;;1.23;1.23;;;17.10;60.50;;;;;;4993077;28;20030;-36
2021/03/08 05:11:45;;;;;;;1.38;1.30;;;17.10;60.70;;;;;;4975000;28;20033;-36
2021/03/08 05:14:16;;;;;;;1.35;1.27;;;17.10;60.50;;;;;;4978086;28;20030;-35
2021/03/08 05:16:44;;;;;;;1.30;1.30;;;17.10;60.50;;;;;;4992032;28;20068;-37
2021/03/08 05:19:10;;;;;;;1.60;1.50;;;17.10;60.40;;;;;;4992607;28;20507;-31
2021/03/08 05:21:35;;;;;;;1.38;1.35;;;17.10;60.90;;;;;;4991629;28;20030;-38
2021/03/08 05:24:01;;;;;;;1.48;1.48;;;17.00;60.90;;;;;;5008978;28;20018;-35
2021/03/08 05:26:27;;;;;;;1.77;1.67;;;17.00;60.50;;;;;;5010126;28;20033;-31
2021/03/08 05:28:56;;;;;;;1.90;1.80;;;16.90;61.30;;;;;;4975484;28;20061;-36
2021/03/08 05:31:22;;;;;;;2.20;2.10;;;16.90;60.70;;;;;;5009263;28;20561;-32
2021/03/08 05:33:50;;;;;;;1.85;1.75;;;16.90;60.60;;;;;;5005971;28;20113;-35
2021/03/08 05:36:16;;;;;;;2.35;2.25;;;16.90;61.00;;;;;;4990797;28;20053;-33
2021/03/08 05:38:41;;;;;;;3.20;3.00;;;16.90;60.90;;;;;;4992396;28;20037;-33
2021/03/08 05:41:25;;;;;;;3.25;3.05;;;16.90;60.00;;;;;;5009346;28;20105;-33
2021/03/08 05:43:52;;;;;;;4.45;4.15;;;16.90;59.80;;;;;;4993421;28;20053;-35
2021/03/08 05:46:36;;;;;;;5.75;5.25;;;17.00;59.80;;;;;;5006662;28;20127;-36
2021/03/08 05:49:23;;;;;;;7.63;6.80;;;17.00;59.40;;;;;;5008551;28;20057;-35
2021/03/08 05:52:16;;;;;;;7.80;7.00;;;17.10;59.40;;;;;;4991629;28;20095;-37
2021/03/08 05:54:44;;;;;;;9.02;8.02;;;17.10;59.50;;;;;;4909932;29;20059;-34
2021/03/08 05:57:46;;;;;;;8.80;7.90;;;17.00;59.80;;;;;;4907778;29;20048;-33
2021/03/08 06:01:02;;;;;;;10.75;9.65;;;16.90;59.90;;;;;;4897861;29;20100;-35
2021/03/08 06:03:52;;;;;;;10.52;9.05;;;16.90;60.10;;;;;;4890079;29;20055;-36
2021/03/08 06:06:46;;;;;;;10.73;9.48;;;17.00;60.80;;;;;;4877600;29;20582;-34
2021/03/08 06:09:22;;;;;;;11.50;8.90;;;17.00;60.90;;;;;;4881463;29;20556;-36
2021/03/08 06:12:07;;;;;;;11.57;9.10;;;17.00;61.20;;;;;;4891947;29;20128;-36
2021/03/08 06:14:35;;;;;;;14.07;9.00;;;16.90;61.90;;;;;;4893522;29;20040;-34
2021/03/08 06:17:01;;;;;;;9.70;8.50;;;17.00;62.10;;;;;;4892117;29;20139;-32
2021/03/08 06:19:27;;;;;;;9.57;8.57;;;17.00;61.90;;;;;;4895410;29;20127;-35
2021/03/08 06:21:52;;;;;;;8.88;7.72;;;17.00;61.60;;;;;;4880740;29;20511;-38
2021/03/08 06:24:18;;;;;;;9.85;8.85;;;17.00;61.50;;;;;;4879769;29;20087;-36
2021/03/08 06:26:44;;;;;;;9.40;8.50;;;17.10;61.40;;;;;;4880731;29;20032;-38
2021/03/08 06:29:10;;;;;;;9.75;8.75;;;17.00;62.10;;;;;;4909856;29;20049;-37
2021/03/08 06:31:36;;;;;;;9.95;8.27;;;17.00;61.10;;;;;;4883219;29;20043;-35
2021/03/08 06:34:02;;;;;;;8.07;7.28;;;17.00;61.50;;;;;;4977545;28;20041;-35
2021/03/08 06:36:27;;;;;;;7.60;6.90;;;17.00;61.30;;;;;;5010970;28;20049;-35
2021/03/08 06:38:53;;;;;;;7.80;7.05;;;17.10;61.50;;;;;;4994859;28;20113;-37
2021/03/08 06:41:18;;;;;;;8.57;7.68;;;17.10;61.40;;;;;;5013811;28;20057;-34
2021/03/08 06:43:44;;;;;;;7.75;6.32;;;17.10;61.30;;;;;;4995182;28;20506;-35
2021/03/08 06:46:13;;;;;;;7.90;6.78;;;17.10;61.80;;;;;;4644788;28;10000450;-32
2021/03/08 06:48:38;;;;;;;8.10;7.13;;;17.10;61.60;;;;;;5007829;28;20109;-35
2021/03/08 06:51:17;;;;;;;8.00;6.57;;;17.10;61.40;;;;;;5010337;28;20543;-37
2021/03/08 06:53:43;;;;;;;7.88;6.55;;;17.10;61.50;;;;;;4994410;28;20026;-34
2021/03/08 06:56:20;;;;;;;7.20;6.65;;;17.10;61.30;;;;;;5009808;28;20116;-36
2021/03/08 06:59:05;;;;;;;6.70;6.10;;;17.10;61.20;;;;;;5009725;28;20121;-35
2021/03/08 07:01:31;;;;;;;7.60;6.43;;;17.10;61.20;;;;;;4996627;28;20037;-33
2021/03/08 07:03:58;;;;;;;6.55;6.05;;;17.10;61.20;;;;;;5010100;28;20058;-29
2021/03/08 07:06:24;;;;;;;6.72;6.22;;;17.10;61.20;;;;;;5008635;28;20038;-38
2021/03/08 07:08:49;;;;;;;6.40;5.80;;;17.10;61.30;;;;;;5010461;28;20037;-37
2021/03/08 07:11:24;;;;;;;6.80;6.10;;;17.10;61.30;;;;;;5012027;28;20017;-37
2021/03/08 07:13:50;;;;;;;6.20;5.80;;;17.10;61.30;;;;;;5008566;28;20037;-33
2021/03/08 07:16:16;;;;;;;8.15;6.18;;;17.10;61.30;;;;;;5007896;28;20034;-36
2021/03/08 07:18:42;;;;;;;6.90;6.15;;;17.10;61.20;;;;;;5010842;28;20041;-34
2021/03/08 07:21:22;;;;;;;7.70;6.25;;;17.00;61.20;;;;;;5009456;28;20038;-33
2021/03/08 07:23:49;;;;;;;7.85;6.30;;;17.10;61.10;;;;;;4993134;28;20060;-37
2021/03/08 07:26:16;;;;;;;7.18;6.43;;;17.10;60.90;;;;;;4992668;28;20026;-31
2021/03/08 07:28:42;;;;;;;7.82;6.65;;;17.10;60.80;;;;;;5010224;28;20056;-35
2021/03/08 07:31:08;;;;;;;6.88;6.20;;;17.10;61.00;;;;;;5008286;28;20412;-41
2021/03/08 07:33:33;;;;;;;8.15;6.45;;;17.10;61.00;;;;;;5009588;28;20026;-36
2021/03/08 07:35:59;;;;;;;6.60;6.03;;;17.00;60.90;;;;;;5009668;28;20990;-38
2021/03/08 07:38:33;;;;;;;6.78;6.28;;;17.00;61.00;;;;;;5011656;28;20416;-36
2021/03/08 07:41:18;;;;;;;6.53;5.88;;;17.00;60.90;;;;;;5011174;28;20041;-36
2021/03/08 07:43:45;;;;;;;7.03;6.50;;;17.00;60.70;;;;;;5009202;28;20408;-39
2021/03/08 07:46:32;;;;;;;6.35;5.90;;;17.10;60.80;;;;;;5008511;28;20018;-32
2021/03/08 07:48:59;;;;;;;6.30;5.90;;;17.10;60.90;;;;;;5008897;28;20021;-38
2021/03/08 07:51:25;;;;;;;6.25;5.68;;;17.10;60.80;;;;;;5008565;28;20021;-38
2021/03/08 07:54:06;;;;;;;6.55;6.15;;;17.10;60.70;;;;;;5010335;28;20038;-38
2021/03/08 07:56:33;;;;;;;6.47;5.88;;;17.10;60.50;;;;;;4996867;28;20424;-32
2021/03/08 07:58:58;;;;;;;6.55;6.05;;;17.20;60.40;;;;;;5002640;28;20034;-38
2021/03/08 08:01:24;;;;;;;6.20;5.70;;;17.20;60.40;;;;;;5006736;28;20104;-31
2021/03/08 08:03:50;;;;;;;6.43;5.93;;;17.20;60.40;;;;;;5000527;28;20081;-34
2021/03/08 08:06:23;;;;;;;5.53;5.13;;;17.10;60.80;;;;;;5006736;28;20526;-37
2021/03/08 08:08:50;;;;;;;5.93;5.28;;;17.10;60.40;;;;;;5008541;28;20076;-38
2021/03/08 08:11:16;;;;;;;6.10;5.60;;;17.10;60.60;;;;;;5011581;28;20045;-36
2021/03/08 08:14:01;;;;;;;5.68;5.28;;;17.10;60.60;;;;;;5006534;28;20030;-38
2021/03/08 08:16:31;;;;;;;5.97;5.50;;;17.10;60.80;;;;;;4988040;28;20709;-39
2021/03/08 08:19:03;;;;;;;6.28;5.72;;;17.10;61.20;;;;;;5005839;28;20041;-36
2021/03/08 08:21:35;;;;;;;5.90;5.50;;;17.10;61.50;;;;;;5008617;28;20030;-34
2021/03/08 08:24:03;;;;;;;5.50;5.00;;;17.00;62.30;;;;;;5000629;28;20057;-34
2021/03/08 08:26:28;;;;;;;7.82;6.00;;;17.00;63.60;;;;;;5006541;28;20117;-35
2021/03/08 08:28:54;;;;;;;14.32;10.30;;;16.90;63.10;;;;;;4989183;28;20113;-37
2021/03/08 08:31:20;;;;;;;23.30;15.45;;;17.00;62.30;;;;;;4990194;28;20034;-39
2021/03/08 08:33:46;;;;;;;26.90;16.90;;;16.90;62.20;;;;;;4988648;28;20042;-37
2021/03/08 08:36:18;;;;;;;30.25;18.17;;;17.00;62.30;;;;;;5005286;28;20145;-38
2021/03/08 08:39:11;;;;;;;29.63;16.85;;;16.90;62.30;;;;;;5005164;28;20022;-36
2021/03/08 08:41:36;;;;;;;27.40;16.90;;;17.00;62.30;;;;;;5004126;28;20508;-38
2021/03/08 08:44:12;;;;;;;26.52;15.57;;;17.00;62.00;;;;;;5007515;28;20026;-38
2021/03/08 08:46:42;;;;;;;27.45;16.67;;;17.00;62.10;;;;;;5006950;28;20084;-36
2021/03/08 08:49:09;;;;;;;24.83;16.30;;;17.00;62.10;;;;;;5008835;28;20400;-37
2021/03/08 08:51:52;;;;;;;22.75;15.30;;;17.00;62.10;;;;;;5008416;28;20522;-34
2021/03/08 08:54:27;;;;;;;25.70;16.38;;;17.00;62.20;;;;;;5002681;28;20514;-39
2021/03/08 08:56:54;;;;;;;24.20;14.85;;;17.10;61.90;;;;;;5006926;28;20034;-36
2021/03/08 08:59:20;;;;;;;27.75;16.98;;;17.00;62.10;;;;;;5006813;28;20030;-33
2021/03/08 09:01:47;;;;;;;27.30;16.42;;;17.10;62.10;;;;;;5005085;28;20066;-33
2021/03/08 09:04:15;;;;;;;22.83;14.27;;;17.10;62.20;;;;;;5008640;28;20037;-36
2021/03/08 09:06:46;;;;;;;24.52;15.05;;;17.10;62.20;;;;;;5004915;28;20022;-35
2021/03/08 09:09:16;;;;;;;24.67;15.75;;;17.10;62.30;;;;;;4995791;28;20026;-36
2021/03/08 09:11:45;;;;;;;24.02;15.10;;;17.10;62.20;;;;;;5003649;28;20030;-37
2021/03/08 09:14:46;;;;;;;23.35;14.98;;;17.10;62.00;;;;;;5006503;28;20033;-39
2021/03/08 09:17:20;;;;;;;22.27;14.32;;;17.10;62.10;;;;;;5009426;28;20081;-38
2021/03/08 09:19:55;;;;;;;25.02;15.82;;;17.10;62.00;;;;;;5004933;28;20022;-38
2021/03/08 09:22:26;;;;;;;20.73;14.40;;;17.10;62.10;;;;;;5008627;28;20041;-39
2021/03/08 09:25:10;;;;;;;19.27;13.50;;;17.10;61.90;;;;;;5001962;28;20030;-38
2021/03/08 09:27:42;;;;;;;17.47;12.80;;;17.20;62.10;;;;;;5006391;28;20040;-37
2021/03/08 09:30:12;;;;;;;18.55;12.27;;;17.20;62.30;;;;;;5005919;28;20178;-35
2021/03/08 09:32:52;;;;;;;16.55;11.88;;;17.30;62.10;;;;;;5004592;28;20519;-41
2021/03/08 09:35:19;;;;;;;15.75;11.55;;;17.30;62.50;;;;;;5007389;28;20066;-39
2021/03/08 09:37:59;;;;;;;16.27;12.10;;;17.30;65.00;;;;;;5006453;28;20112;-38
2021/03/08 09:40:26;;;;;;;16.05;11.60;;;17.40;62.50;;;;;;5005374;28;20017;-40
2021/03/08 09:42:51;;;;;;;14.07;10.57;;;17.50;64.40;;;;;;5007129;28;20033;-36
2021/03/08 09:45:20;;;;;;;14.77;11.43;;;17.50;62.90;;;;;;4991514;28;20092;-41
2021/03/08 09:47:45;;;;;;;15.15;10.88;;;17.50;62.50;;;;;;5010399;28;20030;-38
2021/03/08 09:50:16;;;;;;;16.13;11.63;;;17.50;62.50;;;;;;5013805;28;20034;-34
2021/03/08 09:52:42;;;;;;;18.80;11.20;;;17.60;62.70;;;;;;5010362;28;20600;-37
2021/03/08 09:55:22;;;;;;;13.80;10.63;;;17.70;62.80;;;;;;5008772;28;20036;-38
2021/03/08 09:57:47;;;;;;;14.30;10.48;;;17.70;62.40;;;;;;5009354;28;20040;-34
2021/03/08 10:00:14;;;;;;;15.57;11.02;;;17.70;62.80;;;;;;5009897;28;20018;-34
2021/03/08 10:02:40;;;;;;;15.75;11.07;;;17.80;62.80;;;;;;4988361;28;20206;-40
2021/03/08 10:05:08;;;;;;;13.80;10.32;;;17.90;62.50;;;;;;5011356;28;20515;-42
2021/03/08 10:07:33;;;;;;;14.82;11.38;;;18.00;62.20;;;;;;5008963;28;20404;-35
2021/03/08 10:10:09;;;;;;;16.38;10.65;;;17.90;61.90;;;;;;5009087;28;20033;-42
2021/03/08 10:12:35;;;;;;;13.80;9.88;;;18.00;61.80;;;;;;5011660;28;20520;-32
2021/03/08 10:15:01;;;;;;;13.43;9.80;;;18.00;61.70;;;;;;5008717;28;20022;-37
2021/03/08 10:17:27;;;;;;;12.73;10.07;;;18.10;61.60;;;;;;5011137;28;20033;-37
2021/03/08 10:20:00;;;;;;;13.18;9.63;;;18.10;61.50;;;;;;5009854;28;20037;-37
2021/03/08 10:22:39;;;;;;;13.77;10.40;;;18.10;61.50;;;;;;5009342;28;20513;-44
2021/03/08 10:25:44;;;;;;;13.40;9.90;;;18.10;61.20;;;;;;5008293;28;20057;-35
2021/03/08 10:28:09;;;;;;;13.07;8.90;;;18.20;61.10;;;;;;4913205;29;20131;-39
2021/03/08 10:30:35;;;;;;;13.57;8.63;;;18.30;61.20;;;;;;4906894;29;20048;-39
2021/03/08 10:33:02;;;;;;;10.50;7.75;;;18.30;61.00;;;;;;4928567;29;20043;-39
2021/03/08 10:35:45;;;;;;;9.43;7.88;;;18.30;61.00;;;;;;4916325;29;20195;-37
2021/03/08 10:38:11;;;;;;;12.27;8.43;;;18.30;60.90;;;;;;4916476;29;20044;-40
2021/03/08 10:40:37;;;;;;;8.93;7.93;;;18.40;60.90;;;;;;4926135;29;20051;-41
2021/03/08 10:43:02;;;;;;;12.85;8.45;;;18.30;61.00;;;;;;4914333;29;20538;-41
2021/03/08 10:45:28;;;;;;;11.27;8.30;;;18.40;60.60;;;;;;4925767;29;20511;-39
2021/03/08 10:48:10;;;;;;;9.80;8.23;;;18.40;60.40;;;;;;4913201;29;20411;-38
2021/03/08 10:50:43;;;;;;;9.32;7.80;;;18.50;60.20;;;;;;4931893;29;20387;-41
2021/03/08 10:53:09;;;;;;;9.60;8.05;;;18.60;60.20;;;;;;4916758;29;20036;-43
2021/03/08 10:55:35;;;;;;;8.43;7.30;;;18.50;60.10;;;;;;4927556;29;20395;-38
2021/03/08 10:58:02;;;;;;;11.27;7.32;;;18.50;60.20;;;;;;4937741;28;20055;-40
2021/03/08 11:00:28;;;;;;;9.30;7.70;;;18.60;60.10;;;;;;5006070;28;20066;-40
2021/03/08 11:02:54;;;;;;;8.63;7.63;;;18.60;60.40;;;;;;5010052;28;20034;-41
2021/03/08 11:05:22;;;;;;;11.73;7.90;;;18.70;60.40;;;;;;5008731;28;20033;-41
2021/03/08 11:07:47;;;;;;;9.77;7.03;;;18.70;60.00;;;;;;4991042;28;20038;-37
2021/03/08 11:10:13;;;;;;;9.43;6.80;;;18.70;60.00;;;;;;5009890;28;20025;-41
2021/03/08 11:12:39;;;;;;;8.73;7.72;;;18.60;60.00;;;;;;5007556;28;20041;-41
2021/03/08 11:15:05;;;;;;;9.48;7.50;;;18.60;59.90;;;;;;5008769;28;20488;-41
2021/03/08 11:17:33;;;;;;;7.97;7.18;;;18.60;59.60;;;;;;4992572;28;20037;-40
2021/03/08 11:20:19;;;;;;;8.98;7.60;;;18.70;59.60;;;;;;5010098;28;20151;-38
2021/03/08 11:22:54;;;;;;;8.13;7.00;;;18.70;59.60;;;;;;5009470;28;20029;-39
2021/03/08 11:25:46;;;;;;;8.48;7.53;;;18.80;59.50;;;;;;5003717;28;20088;-42
2021/03/08 11:28:15;;;;;;;7.95;6.90;;;18.80;59.50;;;;;;5003208;28;20511;-42
2021/03/08 11:30:51;;;;;;;7.00;6.30;;;18.70;59.70;;;;;;5002766;28;20049;-41
2021/03/08 11:33:17;;;;;;;7.32;6.25;;;18.70;59.40;;;;;;5004347;28;20030;-41
2021/03/08 11:35:47;;;;;;;6.45;5.85;;;18.70;59.20;;;;;;5006097;28;20040;-43
2021/03/08 11:38:14;;;;;;;8.88;5.95;;;18.60;59.40;;;;;;5008633;28;20152;-39
2021/03/08 11:40:44;;;;;;;7.13;6.43;;;18.60;59.60;;;;;;5004861;28;20041;-37
2021/03/08 11:43:10;;;;;;;7.30;6.38;;;18.60;59.40;;;;;;5002776;28;20056;-39
2021/03/08 11:45:35;;;;;;;6.60;5.95;;;18.60;59.60;;;;;;5002928;28;20566;-42
2021/03/08 11:48:02;;;;;;;5.90;5.40;;;18.60;59.60;;;;;;5004656;28;20026;-39
2021/03/08 11:50:29;;;;;;;6.72;5.32;;;18.50;59.80;;;;;;5006073;28;20040;-37
2021/03/08 11:52:55;;;;;;;7.22;6.00;;;18.50;60.20;;;;;;5004435;28;20030;-42
2021/03/08 11:55:21;;;;;;;5.72;5.15;;;18.60;59.70;;;;;;5004838;28;20534;-39
2021/03/08 11:57:47;;;;;;;6.13;5.63;;;18.60;59.80;;;;;;5004739;28;20045;-38
2021/03/08 12:00:13;;;;;;;6.97;6.28;;;18.70;59.70;;;;;;5004343;28;20301;-41
2021/03/08 12:02:39;;;;;;;6.38;5.40;;;18.70;59.70;;;;;;5004132;28;20025;-41
2021/03/08 12:05:05;;;;;;;5.70;5.20;;;18.70;59.60;;;;;;5005589;28;20034;-39
2021/03/08 12:07:31;;;;;;;5.43;4.93;;;18.70;59.40;;;;;;4645298;28;9999930;-40
2021/03/08 12:09:56;;;;;;;5.45;4.95;;;18.60;59.50;;;;;;5004423;28;23388;-41
2021/03/08 12:12:22;;;;;;;5.63;5.13;;;18.60;59.40;;;;;;5004444;28;20230;-42
2021/03/08 12:14:47;;;;;;;7.35;5.68;;;18.60;59.40;;;;;;4988492;28;20467;-41
2021/03/08 12:17:13;;;;;;;6.15;5.65;;;18.60;59.30;;;;;;5000276;28;20042;-40
2021/03/08 12:19:38;;;;;;;5.80;5.20;;;18.60;59.60;;;;;;5003492;28;20026;-41
2021/03/08 12:22:04;;;;;;;5.53;5.03;;;18.70;59.40;;;;;;5001842;28;20022;-42
2021/03/08 12:24:30;;;;;;;5.65;5.15;;;18.80;59.40;;;;;;5003217;28;20069;-42
2021/03/08 12:26:56;;;;;;;6.50;4.78;;;18.90;59.10;;;;;;5004032;28;20037;-39
2021/03/08 12:29:21;;;;;;;6.00;5.35;;;18.90;58.80;;;;;;5009273;28;20046;-41
2021/03/08 12:31:47;;;;;;;5.15;4.50;;;18.90;59.40;;;;;;5004453;28;20097;-42
2021/03/08 12:34:12;;;;;;;4.57;4.25;;;18.80;59.00;;;;;;4988005;28;20034;-41
2021/03/08 12:36:38;;;;;;;6.20;4.55;;;18.80;59.20;;;;;;5004528;28;20034;-43
2021/03/08 12:39:04;;;;;;;4.93;4.43;;;18.70;59.30;;;;;;5007167;28;20053;-40
2021/03/08 12:41:29;;;;;;;5.00;4.15;;;18.70;59.40;;;;;;5008153;28;20088;-41
2021/03/08 12:43:55;;;;;;;4.55;4.13;;;18.60;59.40;;;;;;5007078;28;20064;-41
2021/03/08 12:46:23;;;;;;;4.22;3.92;;;18.60;59.40;;;;;;5004717;28;20053;-43
2021/03/08 12:48:49;;;;;;;4.30;3.95;;;18.60;59.60;;;;;;5006189;28;20116;-39
2021/03/08 12:51:14;;;;;;;5.82;4.13;;;18.60;59.50;;;;;;5007656;28;20492;-39
2021/03/08 12:53:41;;;;;;;4.55;4.22;;;18.60;59.40;;;;;;5007896;28;20080;-44